Time;durP1;ratioP1;P1;durP2;ratioP2;P2;SDS_P1;SDS_P2;PMS_P1;PMS_P2;Temp;Humidity;BMP_temperature;BMP_pressure;BME280_temperature;BME280_humidity;BME280_pressure;Samples;Min_cycle;Max_cycle;Signal;HPM_P1;HPM_P2
2023/05/19 00:01:36;;;;;;;1999.90;999.90;;;;;;;15.37;47.51;100895.66;5028789;28;20469;-73
2023/05/19 00:04:03;;;;;;;1999.90;999.90;;;;;;;15.33;47.62;100891.81;5024428;28;20399;-73
2023/05/19 00:06:31;;;;;;;1999.90;999.90;;;;;;;15.34;47.58;100891.56;5023128;28;20401;-73
2023/05/19 00:08:58;;;;;;;1999.90;999.90;;;;;;;15.28;47.71;100900.78;5036260;28;20486;-73
2023/05/19 00:11:25;;;;;;;1999.90;999.90;;;;;;;15.31;47.50;100885.81;5036184;28;20403;-73
2023/05/19 00:13:53;;;;;;;1999.90;999.90;;;;;;;15.23;47.61;100900.78;5036417;28;20486;-73
2023/05/19 00:16:18;;;;;;;1999.90;999.90;;;;;;;15.16;47.82;100889.28;5034566;28;20428;-73
2023/05/19 00:18:44;;;;;;;1999.90;999.90;;;;;;;15.15;48.29;100892.28;5017130;28;20405;-73
2023/05/19 00:21:09;;;;;;;1999.90;999.90;;;;;;;15.12;48.02;100888.16;5010615;28;20755;-73
2023/05/19 00:23:34;;;;;;;1999.90;999.90;;;;;;;15.12;48.12;100893.59;5022335;28;20431;-73
2023/05/19 00:26:00;;;;;;;1999.90;999.90;;;;;;;15.08;48.24;100893.31;5026982;28;20407;-73
2023/05/19 00:28:25;;;;;;;1999.90;999.90;;;;;;;15.05;48.46;100895.75;5019323;28;20833;-73
2023/05/19 00:30:50;;;;;;;1999.90;999.90;;;;;;;15.06;48.31;100900.97;5025468;28;20402;-73
2023/05/19 00:33:16;;;;;;;1999.90;999.90;;;;;;;15.03;48.46;100890.56;5025524;28;20802;-73
2023/05/19 00:35:41;;;;;;;1999.90;999.90;;;;;;;15.02;48.63;100893.53;5038697;28;20415;-73
2023/05/19 00:38:06;;;;;;;1999.90;999.90;;;;;;;14.95;48.79;100887.53;5036683;28;20439;-73
2023/05/19 00:40:35;;;;;;;1999.90;999.90;;;;;;;14.86;48.89;100897.25;5035209;28;20742;-73
2023/05/19 00:43:00;;;;;;;1999.90;999.90;;;;;;;14.90;48.82;100890.19;5039187;28;20407;-73
2023/05/19 00:45:26;;;;;;;1999.90;999.90;;;;;;;14.95;48.81;100880.13;5038939;28;20489;-73
2023/05/19 00:47:51;;;;;;;1999.90;999.90;;;;;;;14.93;48.51;100893.22;5037860;28;21103;-73
2023/05/19 00:50:17;;;;;;;1999.90;999.90;;;;;;;14.91;48.57;100880.94;5029988;28;20422;-73
2023/05/19 00:52:42;;;;;;;1999.90;999.90;;;;;;;14.93;48.75;100881.50;5052973;28;20396;-73
2023/05/19 00:55:08;;;;;;;1999.90;999.90;;;;;;;14.90;48.79;100879.28;5027924;28;20486;-74
2023/05/19 00:57:34;;;;;;;1999.90;999.90;;;;;;;14.84;48.75;100889.34;5025737;28;20421;-73
2023/05/19 00:59:59;;;;;;;1999.90;999.90;;;;;;;14.86;48.94;100895.34;5022322;28;20973;-73
2023/05/19 01:02:25;;;;;;;1999.90;999.90;;;;;;;14.87;48.80;100896.19;5028772;28;20397;-73
2023/05/19 01:04:52;;;;;;;1999.90;999.90;;;;;;;14.81;49.01;100884.44;5030689;28;20761;-73
2023/05/19 01:07:18;;;;;;;1999.90;999.90;;;;;;;14.79;49.19;100885.75;5033248;28;20784;-73
2023/05/19 01:09:45;;;;;;;1999.90;999.90;;;;;;;14.77;49.20;100890.66;5036709;28;20408;-74
2023/05/19 01:12:11;;;;;;;1999.90;999.90;;;;;;;14.77;49.24;100872.38;5035759;28;20884;-73
2023/05/19 01:14:36;;;;;;;1999.90;999.90;;;;;;;14.75;48.98;100871.00;5023189;28;20405;-73
2023/05/19 01:17:26;;;;;;;1999.90;999.90;;;;;;;14.82;48.84;100871.59;5031521;28;20511;-73
2023/05/19 01:20:39;;;;;;;1072.22;516.00;;;;;;;14.79;49.14;100872.94;5028540;28;20456;-73
2023/05/19 01:23:23;;;;;;;1999.90;999.90;;;;;;;14.70;49.35;100866.31;5030503;28;20759;-73
2023/05/19 01:26:08;;;;;;;1736.63;566.88;;;;;;;14.70;49.24;100871.78;5025431;28;20818;-73
2023/05/19 01:29:00;;;;;;;1999.90;999.90;;;;;;;14.66;49.42;100865.19;5030098;28;20412;-74
2023/05/19 01:31:26;;;;;;;1999.90;482.92;;;;;;;14.67;49.48;100869.59;5038503;28;20880;-73
2023/05/19 01:33:53;;;;;;;1999.90;730.47;;;;;;;14.71;49.29;100875.34;5032549;28;20427;-73
2023/05/19 01:36:20;;;;;;;1999.90;644.30;;;;;;;14.69;49.26;100878.31;5035051;28;20426;-73
2023/05/19 01:38:48;;;;;;;1999.90;909.90;;;;;;;14.67;49.54;100880.50;5039009;28;20975;-73
2023/05/19 01:41:14;;;;;;;1999.90;878.45;;;;;;;14.66;49.52;100869.84;5043934;28;20411;-73
2023/05/19 01:43:40;;;;;;;1999.90;576.35;;;;;;;14.66;49.57;100867.09;5023341;28;20408;-74
2023/05/19 01:46:07;;;;;;;1999.90;676.47;;;;;;;14.67;49.64;100868.75;5024147;28;20415;-74
2023/05/19 01:48:32;;;;;;;1999.90;732.53;;;;;;;14.64;49.58;100869.28;5026030;28;20403;-73
2023/05/19 01:50:58;;;;;;;1999.90;774.28;;;;;;;14.63;49.59;100863.00;5027095;28;20484;-74
2023/05/19 01:53:24;;;;;;;1999.90;961.80;;;;;;;14.65;49.53;100870.94;5022734;28;20400;-73
2023/05/19 01:55:52;;;;;;;1999.90;999.90;;;;;;;14.63;49.40;100873.09;5032761;28;20407;-73
2023/05/19 01:58:43;;;;;;;1999.90;999.90;;;;;;;14.64;49.31;100870.09;5027168;28;20420;-73
2023/05/19 02:01:20;;;;;;;1999.90;999.90;;;;;;;14.62;49.30;100869.53;5028592;28;20411;-73
2023/05/19 02:04:22;;;;;;;1999.90;999.90;;;;;;;14.60;49.58;100877.16;5031431;28;20417;-73
2023/05/19 02:06:56;;;;;;;1999.90;999.90;;;;;;;14.59;49.64;100875.50;5030665;28;20498;-73
2023/05/19 02:09:37;;;;;;;1999.90;999.90;;;;;;;14.52;49.68;100875.72;5038381;28;20898;-73
2023/05/19 02:12:30;;;;;;;1999.90;999.90;;;;;;;14.55;49.70;100877.13;5027713;28;20929;-74
2023/05/19 02:15:07;;;;;;;1999.90;999.90;;;;;;;14.56;49.43;100876.03;5021063;28;20759;-73
2023/05/19 02:17:36;;;;;;;1697.30;999.90;;;;;;;14.52;49.92;100881.19;5020673;28;20418;-73
2023/05/19 02:20:03;;;;;;;949.97;848.35;;;;;;;14.48;50.07;100885.53;5026908;28;20404;-73
2023/05/19 02:22:29;;;;;;;1304.18;970.47;;;;;;;14.49;50.06;100883.59;5027103;28;20479;-73
2023/05/19 02:24:56;;;;;;;522.43;482.77;;;;;;;14.43;50.06;100887.38;5030980;28;20432;-73
2023/05/19 02:27:22;;;;;;;375.42;349.27;;;;;;;14.41;50.26;100887.66;5028235;28;20411;-74
2023/05/19 02:29:47;;;;;;;254.95;240.35;;;;;;;14.42;50.58;100885.75;5044120;28;20900;-74
2023/05/19 02:32:13;;;;;;;311.40;291.60;;;;;;;14.43;50.39;100882.75;5042703;28;20427;-73
2023/05/19 02:34:41;;;;;;;120.13;113.80;;;;;;;14.40;50.53;100888.72;5031954;28;20432;-73
2023/05/19 02:37:06;;;;;;;31.33;29.63;;;;;;;14.38;50.55;100877.28;5027851;28;20423;-73
2023/05/19 02:39:33;;;;;;;17.63;16.37;;;;;;;14.38;50.62;100876.44;5028786;28;20444;-73
2023/05/19 02:41:59;;;;;;;9.82;9.23;;;;;;;14.36;51.02;100875.88;5035103;28;20393;-73
2023/05/19 02:44:24;;;;;;;6.30;4.22;;;;;;;14.30;51.27;100876.88;5071067;28;20416;-74
2023/05/19 02:46:50;;;;;;;4.07;3.67;;;;;;;14.28;51.18;100876.31;5038162;28;20817;-73
2023/05/19 02:49:15;;;;;;;7.70;5.27;;;;;;;14.28;51.55;100879.03;5024055;28;20411;-73
2023/05/19 02:51:40;;;;;;;5.28;4.78;;;;;;;14.28;51.19;100874.41;5025627;28;20404;-74
2023/05/19 02:54:05;;;;;;;6.53;2.30;;;;;;;14.25;51.56;100872.22;5031654;28;20430;-74
2023/05/19 02:56:31;;;;;;;2.93;2.60;;;;;;;14.26;51.80;100876.56;5028596;28;20523;-73
2023/05/19 02:58:57;;;;;;;4.07;2.65;;;;;;;14.26;51.40;100870.31;5017783;28;20412;-73
2023/05/19 03:01:22;;;;;;;8.90;2.45;;;;;;;14.23;51.51;100877.09;5034885;28;20817;-73
2023/05/19 03:03:47;;;;;;;11.13;4.53;;;;;;;14.23;51.65;100870.81;5028837;28;20407;-73
2023/05/19 03:06:14;;;;;;;8.27;3.37;;;;;;;14.21;52.13;100865.63;5028414;28;20428;-73
2023/05/19 03:08:39;;;;;;;5.43;2.75;;;;;;;14.20;52.06;100863.97;5034040;28;20399;-73
2023/05/19 03:11:05;;;;;;;6.20;2.40;;;;;;;14.18;52.07;100868.06;5029360;28;20425;-73
2023/05/19 03:13:30;;;;;;;3.60;2.23;;;;;;;14.17;52.00;100864.50;5032205;28;20434;-73
2023/05/19 03:15:57;;;;;;;3.47;2.70;;;;;;;14.14;52.20;100875.09;5025685;28;20961;-73
2023/05/19 03:18:23;;;;;;;6.15;2.80;;;;;;;14.14;52.25;100867.75;5025353;28;20415;-74
2023/05/19 03:20:49;;;;;;;4.15;1.73;;;;;;;14.14;52.20;100864.19;5027907;28;20457;-73
2023/05/19 03:23:14;;;;;;;6.87;2.27;;;;;;;14.10;52.40;100871.22;5031826;28;20398;-73
2023/05/19 03:25:39;;;;;;;4.20;2.20;;;;;;;14.10;52.49;100874.78;5032413;28;20403;-73
2023/05/19 03:28:05;;;;;;;7.53;2.13;;;;;;;14.06;52.31;100870.94;5032573;28;20428;-73
2023/05/19 03:30:30;;;;;;;4.47;1.92;;;;;;;14.05;52.59;100872.03;5032217;28;20419;-73
2023/05/19 03:32:55;;;;;;;5.33;2.10;;;;;;;14.02;52.87;100865.19;5039229;28;20463;-73
2023/05/19 03:35:21;;;;;;;6.20;2.00;;;;;;;14.01;52.79;100865.44;5029397;28;20408;-73
2023/05/19 03:37:46;;;;;;;3.53;2.25;;;;;;;14.01;52.88;100868.97;5023430;28;20468;-73
2023/05/19 03:40:12;;;;;;;4.23;2.10;;;;;;;13.99;52.85;100871.13;5015866;28;20429;-73
2023/05/19 03:42:37;;;;;;;5.57;2.20;;;;;;;13.96;53.08;100877.09;5020297;28;20416;-73
2023/05/19 03:45:03;;;;;;;3.43;1.77;;;;;;;13.96;52.98;100877.09;5031893;28;20768;-73
2023/05/19 03:47:28;;;;;;;5.82;2.00;;;;;;;13.93;53.02;100883.06;5035511;28;20406;-73
2023/05/19 03:49:53;;;;;;;5.93;2.20;;;;;;;13.91;53.34;100882.50;5030264;28;20419;-73
2023/05/19 03:52:19;;;;;;;7.00;2.17;;;;;;;13.92;53.30;100881.44;5031449;28;20413;-74
2023/05/19 03:54:44;;;;;;;3.63;1.47;;;;;;;13.93;53.22;100883.06;5040655;28;20399;-73
2023/05/19 03:57:10;;;;;;;3.47;1.87;;;;;;;13.93;52.94;100882.22;5039781;28;20420;-73
2023/05/19 03:59:36;;;;;;;3.13;1.60;;;;;;;13.94;52.78;100892.88;5043434;28;20404;-73
2023/05/19 04:02:01;;;;;;;2.85;1.42;;;;;;;13.91;53.34;100885.22;5026013;28;20466;-73
2023/05/19 04:04:27;;;;;;;7.83;1.70;;;;;;;13.91;52.77;100889.84;5025053;28;20405;-73
2023/05/19 04:06:52;;;;;;;10.35;2.50;;;;;;;13.90;53.26;100883.56;5026332;28;20443;-73
2023/05/19 04:09:18;;;;;;;3.30;1.90;;;;;;;13.89;53.13;100895.56;5037644;28;20529;-73
2023/05/19 04:11:43;;;;;;;3.03;1.70;;;;;;;13.90;53.67;100889.03;5035704;28;20413;-73
2023/05/19 04:14:08;;;;;;;7.00;2.20;;;;;;;13.90;53.31;100885.47;5036916;28;20742;-73
2023/05/19 04:16:34;;;;;;;6.18;1.80;;;;;;;13.86;53.42;100893.34;5040581;28;20417;-73
2023/05/19 04:19:00;;;;;;;3.50;1.70;;;;;;;13.86;53.56;100889.81;5044786;28;20410;-73
2023/05/19 04:21:26;;;;;;;4.77;2.10;;;;;;;13.77;53.70;100883.97;5038042;28;20394;-73
2023/05/19 04:23:51;;;;;;;7.47;1.95;;;;;;;13.74;53.61;100889.94;5047461;28;20669;-73
2023/05/19 04:26:18;;;;;;;5.95;2.13;;;;;;;13.78;54.00;100882.91;5049087;28;20394;-73
2023/05/19 04:28:43;;;;;;;6.75;2.08;;;;;;;13.85;53.83;100888.16;5040803;28;20410;-73
2023/05/19 04:31:13;;;;;;;6.05;2.40;;;;;;;13.91;53.47;100892.56;5045507;28;20399;-73
2023/05/19 04:33:39;;;;;;;2.42;1.90;;;;;;;13.92;53.05;100894.22;5046443;28;20406;-73
2023/05/19 04:36:07;;;;;;;4.13;2.10;;;;;;;13.88;53.36;100895.81;5040530;28;20400;-74
2023/05/19 04:38:36;;;;;;;6.85;2.30;;;;;;;13.91;53.42;100903.47;5048970;28;20396;-73
2023/05/19 04:41:03;;;;;;;4.57;1.92;;;;;;;13.87;53.70;100899.59;5045651;28;20954;-73
2023/05/19 04:43:28;;;;;;;4.88;2.17;;;;;;;13.92;53.71;100899.69;5046213;28;20785;-74
2023/05/19 04:45:53;;;;;;;3.90;1.60;;;;;;;13.97;53.27;100895.09;5034340;28;20418;-74
2023/05/19 04:48:20;;;;;;;3.40;1.70;;;;;;;13.89;53.45;100900.19;5042531;28;20477;-74
2023/05/19 04:50:47;;;;;;;5.90;1.92;;;;;;;13.90;53.72;100902.66;5044514;28;20477;-73
2023/05/19 04:53:13;;;;;;;3.70;1.63;;;;;;;13.97;53.70;100911.44;5039266;28;20508;-73
2023/05/19 04:55:38;;;;;;;3.07;1.60;;;;;;;13.98;53.58;100904.94;5037123;28;20423;-74
2023/05/19 04:58:03;;;;;;;5.80;1.60;;;;;;;14.00;53.48;100904.66;5038141;28;20824;-73
2023/05/19 05:00:29;;;;;;;6.07;1.70;;;;;;;14.01;53.86;100901.69;5028917;28;20405;-73
2023/05/19 05:02:56;;;;;;;2.60;1.70;;;;;;;14.04;54.00;100909.34;5035102;28;20414;-74
2023/05/19 05:05:21;;;;;;;3.88;1.90;;;;;;;14.08;53.62;100912.38;5037700;28;20669;-73
2023/05/19 05:07:48;;;;;;;6.83;2.20;;;;;;;14.03;53.71;100913.13;5036108;28;20473;-73
2023/05/19 05:10:13;;;;;;;4.13;1.88;;;;;;;14.07;53.75;100902.56;5034358;28;20969;-73
2023/05/19 05:12:39;;;;;;;3.43;1.90;;;;;;;14.13;53.50;100908.91;5035038;28;20492;-74
2023/05/19 05:15:08;;;;;;;4.50;1.80;;;;;;;14.07;53.50;100905.28;5036989;28;20517;-74
2023/05/19 05:17:34;;;;;;;7.07;1.95;;;;;;;14.11;53.94;100902.88;5033873;28;20419;-74
2023/05/19 05:20:00;;;;;;;8.85;2.25;;;;;;;14.15;53.53;100909.44;5034311;28;20930;-73
2023/05/19 05:22:26;;;;;;;5.37;1.90;;;;;;;14.15;53.55;100904.00;5035084;28;20811;-74
2023/05/19 05:24:52;;;;;;;4.17;1.93;;;;;;;14.21;53.24;100906.53;5033402;28;20446;-73
2023/05/19 05:27:17;;;;;;;3.75;1.65;;;;;;;14.17;53.44;100910.84;5036702;28;20406;-74
2023/05/19 05:29:42;;;;;;;6.87;2.07;;;;;;;14.21;53.40;100913.88;5034366;28;20415;-74
2023/05/19 05:32:07;;;;;;;5.10;2.00;;;;;;;14.23;53.21;100917.16;5032262;28;20415;-74
2023/05/19 05:34:34;;;;;;;5.50;1.70;;;;;;;14.28;52.76;100903.59;5034976;28;20898;-74
2023/05/19 05:37:00;;;;;;;6.32;2.40;;;;;;;14.27;53.02;100908.22;5033955;28;20466;-76
2023/05/19 05:39:26;;;;;;;4.10;2.00;;;;;;;14.17;53.28;100907.28;5035169;28;21046;-74
2023/05/19 05:41:52;;;;;;;3.08;1.95;;;;;;;14.16;53.33;100903.72;5036803;28;20488;-74
2023/05/19 05:44:17;;;;;;;3.67;2.30;;;;;;;14.15;53.49;100896.66;5033149;28;21001;-73
2023/05/19 05:46:42;;;;;;;4.40;1.97;;;;;;;14.22;53.45;100897.28;5031613;28;20476;-74
2023/05/19 05:49:08;;;;;;;3.87;1.97;;;;;;;14.29;53.44;100895.13;5027640;28;20466;-75
2023/05/19 05:51:34;;;;;;;5.00;1.92;;;;;;;14.24;52.84;100894.25;5034709;28;20404;-73
2023/05/19 05:54:01;;;;;;;5.07;2.15;;;;;;;14.21;53.21;100894.78;5035370;28;20793;-74
2023/05/19 05:56:27;;;;;;;6.43;2.05;;;;;;;14.20;53.21;100899.41;5033766;28;20498;-73
2023/05/19 05:58:52;;;;;;;5.35;1.70;;;;;;;14.24;53.38;100900.53;5035394;28;20474;-74
2023/05/19 06:01:18;;;;;;;5.17;1.80;;;;;;;14.29;52.84;100903.31;5040046;28;20400;-73
2023/05/19 06:03:43;;;;;;;6.07;1.90;;;;;;;14.32;52.94;100902.81;5034112;28;20941;-74
2023/05/19 06:06:10;;;;;;;4.88;1.83;;;;;;;14.35;52.47;100894.16;5036662;28;20422;-74
2023/05/19 06:08:35;;;;;;;5.10;2.05;;;;;;;14.30;52.43;100895.97;5036306;28;20387;-74
2023/05/19 06:11:07;;;;;;;4.83;2.37;;;;;;;14.27;52.58;100889.13;5038462;28;21007;-74
2023/05/19 06:13:32;;;;;;;6.70;2.10;;;;;;;14.34;52.34;100897.13;5022040;28;20419;-74
2023/05/19 06:15:57;;;;;;;3.22;1.90;;;;;;;14.38;52.64;100884.63;5036326;28;20443;-74
2023/05/19 06:18:23;;;;;;;4.73;1.73;;;;;;;14.40;52.35;100883.28;5036191;28;20391;-73
2023/05/19 06:20:48;;;;;;;4.60;1.77;;;;;;;14.43;52.34;100898.28;5037998;28;20391;-74
2023/05/19 06:23:13;;;;;;;9.83;1.97;;;;;;;14.44;52.07;100889.03;5037769;28;20392;-74
2023/05/19 06:25:38;;;;;;;4.83;1.57;;;;;;;14.42;51.97;100892.00;5035782;28;20391;-74
2023/05/19 06:28:04;;;;;;;9.27;1.80;;;;;;;14.40;51.80;100896.91;5035926;28;20427;-74
2023/05/19 06:30:29;;;;;;;4.53;1.80;;;;;;;14.41;51.91;100889.56;5036754;28;20399;-75
2023/05/19 06:32:55;;;;;;;3.40;1.57;;;;;;;14.47;51.86;100899.41;5036041;28;20400;-75
2023/05/19 06:35:20;;;;;;;1.92;1.38;;;;;;;14.52;52.03;100897.56;5034822;28;20403;-74
2023/05/19 06:37:45;;;;;;;3.93;1.60;;;;;;;14.57;51.81;100894.06;5034619;28;20439;-75
2023/05/19 06:40:11;;;;;;;4.27;1.80;;;;;;;14.57;51.83;100902.22;5034205;28;20399;-75
2023/05/19 06:42:37;;;;;;;5.00;1.58;;;;;;;14.58;52.14;100900.34;5038757;28;20382;-74
2023/05/19 06:45:02;;;;;;;3.13;1.67;;;;;;;14.62;51.66;100902.25;5033715;28;20391;-74
2023/05/19 06:47:27;;;;;;;4.07;2.10;;;;;;;14.68;52.03;100901.25;5035816;28;20422;-74
2023/05/19 06:49:55;;;;;;;2.73;1.50;;;;;;;14.71;51.67;100899.88;5035520;28;20498;-74
2023/05/19 06:52:21;;;;;;;4.75;2.00;;;;;;;14.76;51.71;100898.00;5038432;28;20422;-73
2023/05/19 06:54:47;;;;;;;6.80;1.85;;;;;;;14.83;51.54;100897.78;5036133;28;20390;-73
2023/05/19 06:57:13;;;;;;;3.15;1.60;;;;;;;14.86;51.49;100898.09;5035440;28;20415;-74
2023/05/19 06:59:40;;;;;;;5.97;1.80;;;;;;;14.87;51.47;100894.28;5034599;28;20403;-74
2023/05/19 07:02:06;;;;;;;2.73;1.80;;;;;;;14.91;51.32;100895.41;5037045;28;20484;-74
2023/05/19 07:04:31;;;;;;;2.95;1.60;;;;;;;14.95;51.43;100895.72;5033366;28;20457;-74
2023/05/19 07:06:57;;;;;;;4.07;2.20;;;;;;;14.95;51.41;100898.44;5034060;28;20476;-74
2023/05/19 07:09:22;;;;;;;4.88;1.67;;;;;;;14.95;51.55;100892.97;5035441;28;20474;-74
2023/05/19 07:11:48;;;;;;;3.28;1.60;;;;;;;15.01;51.36;100895.47;5035602;28;20541;-74
2023/05/19 07:14:13;;;;;;;3.43;1.90;;;;;;;15.06;51.28;100894.66;5037545;28;20400;-74
2023/05/19 07:16:38;;;;;;;6.93;1.50;;;;;;;15.07;51.16;100880.78;5033838;28;20407;-74
2023/05/19 07:19:04;;;;;;;3.65;1.77;;;;;;;15.15;51.08;100884.88;5035211;28;20511;-74
2023/05/19 07:21:29;;;;;;;7.90;2.00;;;;;;;15.17;50.96;100881.91;5035180;28;20388;-75
2023/05/19 07:23:54;;;;;;;6.05;2.20;;;;;;;15.19;51.16;100882.44;5038207;28;20590;-74
2023/05/19 07:26:21;;;;;;;4.47;1.97;;;;;;;15.23;51.22;100876.22;5033601;28;20499;-75
2023/05/19 07:28:46;;;;;;;4.88;1.90;;;;;;;15.30;51.14;100879.53;5031742;28;20403;-74
2023/05/19 07:31:11;;;;;;;4.50;1.70;;;;;;;15.36;51.07;100869.44;5034493;28;20485;-75
2023/05/19 07:33:37;;;;;;;5.00;1.67;;;;;;;15.42;51.07;100874.66;5036722;28;20415;-74
2023/05/19 07:36:03;;;;;;;7.43;2.72;;;;;;;15.52;50.67;100863.81;5028772;28;20501;-75
2023/05/19 07:38:30;;;;;;;5.75;2.33;;;;;;;15.55;50.80;100867.91;5033175;28;20778;-74
2023/05/19 07:40:55;;;;;;;6.63;2.35;;;;;;;15.60;50.85;100861.66;5031959;28;20909;-74
2023/05/19 07:43:20;;;;;;;5.67;1.77;;;;;;;15.63;50.59;100864.66;5035105;28;20415;-75
2023/05/19 07:45:46;;;;;;;5.60;1.87;;;;;;;15.66;50.70;100866.84;5034558;28;20417;-74
2023/05/19 07:48:11;;;;;;;4.13;2.00;;;;;;;15.70;50.83;100864.41;5029687;28;20407;-74
2023/05/19 07:50:36;;;;;;;3.87;2.10;;;;;;;15.73;50.80;100864.69;5033649;28;20908;-74
2023/05/19 07:53:02;;;;;;;4.22;1.92;;;;;;;15.79;50.68;100860.06;5033013;28;20421;-74
2023/05/19 07:55:27;;;;;;;3.83;1.90;;;;;;;15.85;50.45;100856.25;5033106;28;20405;-74
2023/05/19 07:57:52;;;;;;;2.43;1.83;;;;;;;15.91;50.58;100857.91;5034545;28;20493;-74
2023/05/19 08:00:18;;;;;;;6.23;2.17;;;;;;;15.97;50.35;100856.84;5028980;28;20767;-75
2023/05/19 08:02:43;;;;;;;3.50;2.00;;;;;;;16.05;50.67;100856.28;5029396;28;20411;-75
2023/05/19 08:05:09;;;;;;;4.18;2.13;;;;;;;16.11;50.33;100849.72;5034514;28;20756;-75
2023/05/19 08:07:35;;;;;;;7.20;2.30;;;;;;;16.14;50.36;100860.13;5031201;28;20886;-74
2023/05/19 08:10:00;;;;;;;4.80;2.20;;;;;;;16.16;50.47;100851.66;5031405;28;20481;-75
2023/05/19 08:12:25;;;;;;;4.57;2.60;;;;;;;16.21;50.23;100849.75;5031146;28;20403;-74
2023/05/19 08:14:51;;;;;;;8.30;2.53;;;;;;;16.28;50.23;100838.53;5033128;28;20403;-74
2023/05/19 08:17:16;;;;;;;4.93;2.35;;;;;;;16.33;50.12;100833.91;5032526;28;20419;-74
2023/05/19 08:19:41;;;;;;;6.43;2.40;;;;;;;16.40;50.04;100842.63;5030996;28;20473;-74
2023/05/19 08:22:07;;;;;;;2.83;2.27;;;;;;;16.46;49.82;100833.34;5032348;28;20772;-74
2023/05/19 08:24:32;;;;;;;7.35;3.13;;;;;;;16.65;49.54;100841.84;5035074;28;20442;-74
2023/05/19 08:26:58;;;;;;;7.20;4.60;;;;;;;16.80;49.20;100843.72;5035462;28;20412;-75
2023/05/19 08:29:23;;;;;;;6.55;3.83;;;;;;;16.90;48.93;100839.03;5031869;28;20438;-74
2023/05/19 08:31:48;;;;;;;6.53;4.20;;;;;;;17.07;48.75;100831.34;5033776;28;20403;-74
2023/05/19 08:34:14;;;;;;;7.23;6.40;;;;;;;17.30;48.44;100834.53;5041509;28;20415;-74
2023/05/19 08:36:40;;;;;;;118.57;111.17;;;;;;;17.73;47.43;100825.59;5035350;28;20507;-74
2023/05/19 08:39:08;;;;;;;1751.72;880.50;;;;;;;18.05;46.26;100834.13;5032802;28;20435;-75
2023/05/19 08:41:34;;;;;;;1326.22;835.00;;;;;;;18.00;46.39;100827.88;5031994;28;20505;-74
2023/05/19 08:43:59;;;;;;;1511.00;895.40;;;;;;;18.11;46.42;100833.00;5033948;28;20433;-74
2023/05/19 08:46:24;;;;;;;1999.90;999.90;;;;;;;18.27;46.44;100821.94;5067490;28;20415;-74
2023/05/19 08:48:53;;;;;;;1999.90;999.90;;;;;;;18.27;46.13;100830.16;5033638;28;20419;-74
2023/05/19 08:51:39;;;;;;;1999.90;999.90;;;;;;;18.25;46.31;100813.97;5031295;28;20403;-74
2023/05/19 08:54:28;;;;;;;1999.90;831.78;;;;;;;18.37;46.05;100819.09;5035090;28;20404;-75
2023/05/19 08:56:54;;;;;;;1999.90;831.05;;;;;;;18.30;46.01;100815.84;5033693;28;20520;-74
2023/05/19 08:59:21;;;;;;;1999.90;395.40;;;;;;;18.27;46.08;100814.50;5034749;28;21020;-74
2023/05/19 09:01:47;;;;;;;1998.25;581.92;;;;;;;18.36;45.83;100809.22;5033434;28;20489;-74
2023/05/19 09:04:14;;;;;;;1999.90;999.90;;;;;;;18.37;45.82;100810.88;5032668;28;20877;-74
2023/05/19 09:06:43;;;;;;;1999.90;999.90;;;;;;;18.48;45.31;100804.16;5033405;28;20415;-74
2023/05/19 09:09:09;;;;;;;1999.90;999.90;;;;;;;18.64;45.08;100811.16;5034082;28;20407;-74
2023/05/19 09:11:36;;;;;;;1999.90;999.90;;;;;;;18.63;45.20;100802.13;5034232;28;20510;-74
2023/05/19 09:14:02;;;;;;;1999.90;999.90;;;;;;;18.66;45.07;100806.22;5040295;28;20934;-74
2023/05/19 09:16:28;;;;;;;1999.90;999.90;;;;;;;18.76;45.45;100799.81;5036233;28;20497;-74
2023/05/19 09:18:57;;;;;;;1999.90;999.90;;;;;;;18.91;44.76;100794.97;5033856;28;20403;-74
2023/05/19 09:21:29;;;;;;;1999.90;999.90;;;;;;;19.10;44.13;100793.09;5034984;28;20418;-75
2023/05/19 09:24:13;;;;;;;1999.90;999.90;;;;;;;19.25;44.02;100786.59;5038852;28;20900;-74
2023/05/19 09:26:41;;;;;;;1999.90;999.90;;;;;;;19.54;43.57;100789.25;5036504;28;20411;-75
2023/05/19 09:29:11;;;;;;;1999.90;999.90;;;;;;;19.72;42.97;100788.47;5036391;28;20413;-74
2023/05/19 09:31:36;;;;;;;1999.90;999.90;;;;;;;20.01;42.35;100796.53;5032952;28;20403;-74
2023/05/19 09:34:02;;;;;;;1999.90;999.90;;;;;;;20.40;40.82;100785.19;5033905;28;20476;-74
2023/05/19 09:36:28;;;;;;;1999.90;999.90;;;;;;;20.77;40.45;100784.22;5033898;28;20433;-74
2023/05/19 09:38:53;;;;;;;1999.90;999.90;;;;;;;20.80;40.17;100780.84;5035494;28;20395;-74
2023/05/19 09:41:19;;;;;;;1999.90;999.90;;;;;;;21.09;39.54;100784.13;5037262;28;20414;-74
2023/05/19 09:43:53;;;;;;;1999.90;999.90;;;;;;;20.69;39.74;100788.50;5036913;28;20405;-75
2023/05/19 09:46:27;;;;;;;1726.80;854.35;;;;;;;20.44;40.09;100783.47;5032101;28;20411;-75
2023/05/19 09:48:56;;;;;;;1832.40;849.92;;;;;;;20.30;40.00;100779.84;5032210;28;20419;-74
2023/05/19 09:51:22;;;;;;;1579.57;749.45;;;;;;;20.28;40.16;100776.59;5038100;28;20466;-74
2023/05/19 09:53:48;;;;;;;1999.90;999.90;;;;;;;20.26;39.91;100773.28;5067774;28;20409;-74
2023/05/19 09:56:13;;;;;;;1999.90;999.90;;;;;;;20.36;40.08;100764.88;5032715;28;20419;-74
2023/05/19 09:58:41;;;;;;;1999.90;999.90;;;;;;;20.40;39.90;100763.97;5033344;28;20419;-75
2023/05/19 10:01:07;;;;;;;1999.90;999.90;;;;;;;20.57;39.79;100769.72;5036106;28;20417;-74
2023/05/19 10:03:33;;;;;;;1999.90;999.90;;;;;;;20.66;39.17;100767.88;5034791;28;20751;-75
2023/05/19 10:06:00;;;;;;;1999.90;999.90;;;;;;;20.64;39.67;100756.38;5032889;28;20473;-74
2023/05/19 10:08:28;;;;;;;1999.90;999.90;;;;;;;20.58;39.75;100762.28;5016162;28;20899;-74
2023/05/19 10:10:54;;;;;;;1999.90;999.90;;;;;;;20.64;39.98;100766.56;5032265;28;20469;-74
2023/05/19 10:13:20;;;;;;;1371.22;999.90;;;;;;;20.67;39.42;100766.78;5035776;28;20409;-74
2023/05/19 10:15:47;;;;;;;1143.50;999.90;;;;;;;20.75;39.05;100767.19;5035106;28;20425;-74
2023/05/19 10:18:16;;;;;;;429.67;397.67;;;;;;;20.97;38.71;100762.63;5036394;28;20580;-74
2023/05/19 10:20:42;;;;;;;11.07;10.13;;;;;;;21.44;37.92;100757.78;5034813;28;20442;-75
2023/05/19 10:23:07;;;;;;;3.93;2.00;;;;;;;21.83;36.83;100755.22;5034661;28;20440;-74
2023/05/19 10:25:35;;;;;;;4.57;2.75;;;;;;;22.48;36.42;100754.69;5033410;28;20506;-75
2023/05/19 10:28:06;;;;;;;4.10;1.90;;;;;;;23.28;35.19;100755.16;5035571;28;20429;-75
2023/05/19 10:30:35;;;;;;;4.75;1.60;;;;;;;22.92;34.50;100754.59;5037118;28;20410;-74
2023/05/19 10:33:03;;;;;;;3.25;1.60;;;;;;;22.50;34.78;100749.66;5034041;28;20442;-74
2023/05/19 10:35:41;;;;;;;2.63;1.02;;;;;;;22.28;35.54;100750.53;5044745;28;20895;-74
2023/05/19 10:38:21;;;;;;;3.53;1.50;;;;;;;22.18;36.02;100750.78;5031925;28;20423;-74
2023/05/19 10:40:52;;;;;;;3.80;1.40;;;;;;;21.89;36.38;100754.00;5033646;28;20405;-74
2023/05/19 10:43:42;;;;;;;3.25;1.40;;;;;;;21.65;36.42;100756.19;5032113;28;20407;-74
2023/05/19 10:46:08;;;;;;;2.28;1.45;;;;;;;21.69;36.27;100754.44;5035808;28;20452;-75
2023/05/19 10:48:36;;;;;;;3.53;1.40;;;;;;;22.02;35.60;100750.34;5038065;28;20964;-75
2023/05/19 10:51:02;;;;;;;3.33;1.58;;;;;;;22.22;35.75;100747.09;5031360;28;20451;-75
2023/05/19 10:53:31;;;;;;;3.10;1.30;;;;;;;22.53;35.45;100746.25;5033736;28;20442;-75
2023/05/19 10:56:01;;;;;;;3.72;1.50;;;;;;;22.76;35.30;100747.88;5035322;28;20442;-74
2023/05/19 10:58:44;;;;;;;2.40;1.20;;;;;;;22.95;35.35;100753.97;5033412;28;20408;-75
2023/05/19 11:01:15;;;;;;;2.17;1.10;;;;;;;22.61;35.21;100759.31;5033931;28;20411;-75
2023/05/19 11:03:55;;;;;;;2.70;1.10;;;;;;;22.15;35.33;100749.47;5034566;28;20846;-74
2023/05/19 11:06:32;;;;;;;9.20;2.43;;;;;;;21.95;35.75;100747.22;5032098;28;20437;-74
2023/05/19 11:09:20;;;;;;;4.43;1.67;;;;;;;21.51;36.44;100747.13;5034237;28;20403;-75
2023/05/19 11:11:53;;;;;;;3.15;1.20;;;;;;;21.20;36.79;100747.00;5031981;28;20497;-75